Time;durP1;ratioP1;P1;durP2;ratioP2;P2;SDS_P1;SDS_P2;PMS_P1;PMS_P2;Temp;Humidity;BMP_temperature;BMP_pressure;BME280_temperature;BME280_humidity;BME280_pressure;Samples;Min_cycle;Max_cycle;Signal;HPM_P1;HPM_P2
2022/01/13 00:02:10;;;;;;;20.10;15.17;;;;;;;-3.66;81.84;101776.00;4940570;29;20500;-80
2022/01/13 00:04:36;;;;;;;21.92;14.90;;;;;;;-3.64;81.64;101776.06;4940513;29;20233;-79
2022/01/13 00:07:02;;;;;;;21.00;16.00;;;;;;;-3.69;81.33;101777.63;4941799;28;20252;-80
2022/01/13 00:09:27;;;;;;;26.57;16.83;;;;;;;-3.83;81.82;101780.66;4938605;29;20261;-81
2022/01/13 00:11:53;;;;;;;23.10;15.63;;;;;;;-3.94;81.93;101791.38;4937917;29;20299;-81
2022/01/13 00:22:01;;;;;;;15.80;12.35;;;;;;;-4.07;82.02;101790.16;4940271;29;20217;-79
2022/01/13 00:24:27;;;;;;;20.55;15.75;;;;;;;-4.06;81.92;101789.34;4942938;28;20212;-80
2022/01/13 00:26:54;;;;;;;21.98;15.40;;;;;;;-4.05;82.30;101788.50;4939827;28;20240;-81
2022/01/13 00:29:26;;;;;;;21.25;13.70;;;;;;;-4.04;81.89;101782.56;4940167;29;20244;-79
2022/01/13 00:31:51;;;;;;;24.58;12.95;;;;;;;-4.03;81.92;101789.41;4938276;29;20219;-79
2022/01/13 00:34:17;;;;;;;24.93;14.60;;;;;;;-4.03;82.13;101789.41;4938988;28;20209;-80
2022/01/13 00:36:43;;;;;;;26.23;15.50;;;;;;;-4.04;81.82;101797.97;4943143;28;20460;-82
2022/01/13 00:39:10;;;;;;;20.93;15.47;;;;;;;-4.06;81.79;101804.72;4932878;28;20217;-79
2022/01/13 00:41:36;;;;;;;20.10;12.35;;;;;;;-4.06;81.80;101815.00;4938506;28;20205;-81
2022/01/13 00:44:05;;;;;;;22.63;14.17;;;;;;;-4.07;81.83;101815.84;4943197;28;20213;-79
2022/01/13 00:46:41;;;;;;;20.27;13.85;;;;;;;-4.07;81.74;101815.84;4937785;28;20232;-81
2022/01/13 00:49:08;;;;;;;20.25;14.02;;;;;;;-4.06;81.95;101818.44;4938183;28;20205;-78
2022/01/13 00:51:33;;;;;;;18.63;15.05;;;;;;;-4.05;81.78;101824.44;4939390;29;20210;-80
2022/01/13 00:54:04;;;;;;;24.13;14.20;;;;;;;-4.06;81.76;101821.00;4937475;29;20220;-79
2022/01/13 00:56:30;;;;;;;22.23;13.50;;;;;;;-4.05;81.65;101837.25;4938095;29;20480;-79
2022/01/13 00:58:56;;;;;;;19.73;12.85;;;;;;;-4.09;81.50;101836.31;4938045;28;20244;-79
2022/01/13 01:01:21;;;;;;;24.70;14.93;;;;;;;-4.12;81.39;101837.91;4939363;29;20444;-80
2022/01/13 01:03:47;;;;;;;17.97;14.37;;;;;;;-4.15;81.89;101833.53;4940113;28;20205;-80
2022/01/13 01:06:12;;;;;;;21.93;14.27;;;;;;;-4.16;81.83;101843.75;4945379;29;20244;-80
2022/01/13 01:08:38;;;;;;;25.83;14.83;;;;;;;-4.16;81.36;101839.47;4948062;28;20209;-80
2022/01/13 01:11:05;;;;;;;26.10;15.90;;;;;;;-4.17;81.70;101845.44;4946582;28;20221;-80
2022/01/13 01:13:33;;;;;;;24.35;14.82;;;;;;;-4.21;81.28;101843.63;4946616;28;20472;-80
2022/01/13 01:16:05;;;;;;;23.90;14.02;;;;;;;-4.28;81.38;101847.66;4946313;28;20308;-81
2022/01/13 01:24:08;;;;;;;15.85;11.30;;;;;;;-4.40;81.43;101843.81;4947938;28;20240;-80
2022/01/13 01:29:08;;;;;;;18.20;12.15;;;;;;;-4.52;81.93;101855.41;4948065;29;20228;-81
2022/01/13 01:31:36;;;;;;;20.23;14.48;;;;;;;-4.54;82.10;101857.03;4949569;29;20920;-81
2022/01/13 01:36:37;;;;;;;21.63;13.20;;;;;;;-4.56;82.43;101857.84;4946134;28;20224;-81
2022/01/13 01:39:06;;;;;;;47.77;22.97;;;;;;;-4.56;82.27;101857.84;4947800;28;20514;-80
2022/01/13 01:41:34;;;;;;;25.38;15.68;;;;;;;-4.57;81.80;101862.06;4940934;29;20198;-81
2022/01/13 01:44:05;;;;;;;21.92;13.40;;;;;;;-4.57;81.91;101864.63;4944327;29;20208;-81
2022/01/13 01:46:35;;;;;;;17.73;12.48;;;;;;;-4.53;81.90;101858.81;4926768;29;20240;-80
2022/01/13 01:49:04;;;;;;;21.88;11.60;;;;;;;-4.50;81.73;101861.47;4944152;29;20209;-81
2022/01/13 01:51:30;;;;;;;24.00;12.00;;;;;;;-4.46;82.02;101859.88;4945313;29;20214;-81
2022/01/13 01:53:55;;;;;;;17.27;10.93;;;;;;;-4.42;81.91;101866.88;4946126;29;20216;-81
2022/01/13 01:56:20;;;;;;;16.70;11.80;;;;;;;-4.42;81.66;101866.88;4945231;28;20229;-80
2022/01/13 01:58:46;;;;;;;16.90;12.83;;;;;;;-4.41;81.93;101878.88;4947771;28;20267;-81
2022/01/13 02:01:13;;;;;;;20.50;12.63;;;;;;;-4.40;81.67;101872.94;4928054;29;20620;-80
2022/01/13 02:03:39;;;;;;;17.40;12.27;;;;;;;-4.40;81.32;101870.38;4919666;29;20568;-81
2022/01/13 02:06:05;;;;;;;19.03;10.30;;;;;;;-4.46;81.11;101865.00;4942761;29;20241;-81
2022/01/13 02:08:30;;;;;;;15.27;11.77;;;;;;;-4.51;81.26;101866.53;4943735;28;20453;-80
2022/01/13 02:10:56;;;;;;;18.83;13.83;;;;;;;-4.51;81.42;101879.38;4944798;28;20297;-81
2022/01/13 02:13:24;;;;;;;18.17;12.23;;;;;;;-4.52;81.78;101859.69;4943048;29;20217;-81
2022/01/13 02:16:05;;;;;;;17.92;10.20;;;;;;;-4.50;81.75;101866.59;4945396;29;20228;-81
2022/01/13 02:18:32;;;;;;;19.63;12.50;;;;;;;-4.50;81.43;101870.88;4945693;28;20205;-81
2022/01/13 02:20:59;;;;;;;16.63;12.90;;;;;;;-4.47;81.35;101868.41;4945113;28;20202;-80
2022/01/13 02:23:33;;;;;;;18.40;13.23;;;;;;;-4.48;81.38;101864.09;4939548;28;20216;-78
2022/01/13 02:25:59;;;;;;;16.23;10.82;;;;;;;-4.49;81.18;101865.78;4921239;29;20224;-78
2022/01/13 02:28:25;;;;;;;17.15;11.02;;;;;;;-4.49;81.53;101872.59;4933438;28;20225;-78
2022/01/13 02:30:51;;;;;;;19.43;12.40;;;;;;;-4.54;81.07;101874.13;4944326;29;20200;-80
2022/01/13 02:33:16;;;;;;;15.17;10.30;;;;;;;-4.59;81.15;101878.22;4945940;28;20258;-80
2022/01/13 02:35:41;;;;;;;24.80;11.00;;;;;;;-4.61;81.67;101870.50;4947119;29;20239;-81
2022/01/13 02:38:12;;;;;;;13.63;11.50;;;;;;;-4.63;81.24;101873.81;4943560;29;20217;-80
2022/01/13 02:40:38;;;;;;;16.10;11.10;;;;;;;-4.67;81.38;101878.84;4943373;29;20692;-80
2022/01/13 02:43:05;;;;;;;19.45;12.32;;;;;;;-4.69;81.61;101884.75;4943469;28;20230;-80
2022/01/13 02:45:34;;;;;;;15.77;9.82;;;;;;;-4.72;81.95;101877.81;4946405;29;20232;-81
2022/01/13 02:48:25;;;;;;;15.20;9.52;;;;;;;-4.74;81.80;101869.19;4945042;29;21021;-81
2022/01/13 02:50:46;;;;;;;9.75;8.70;;;;;;;-4.75;82.10;101877.72;4946296;28;20213;-81
2022/01/13 02:53:11;;;;;;;16.83;11.07;;;;;;;-4.75;81.48;101871.69;4948067;29;20209;-80
2022/01/13 02:55:37;;;;;;;17.70;10.97;;;;;;;-4.78;81.16;101872.47;4949695;28;20574;-81
2022/01/13 02:58:02;;;;;;;11.33;9.37;;;;;;;-4.78;81.86;101869.03;4944423;28;20269;-80
2022/01/13 03:00:28;;;;;;;11.30;9.97;;;;;;;-4.78;82.00;101869.03;4944255;28;20207;-80
2022/01/13 03:02:54;;;;;;;16.40;11.80;;;;;;;-4.80;81.76;101863.84;4947662;29;20204;-80
2022/01/13 03:05:20;;;;;;;17.40;11.27;;;;;;;-4.80;81.68;101861.28;4927166;29;20249;-81
2022/01/13 03:07:46;;;;;;;20.05;11.63;;;;;;;-4.79;81.54;101855.34;4946046;29;20232;-81
2022/01/13 03:10:12;;;;;;;17.17;10.50;;;;;;;-4.78;81.68;101862.22;4944166;29;20295;-79
2022/01/13 03:12:42;;;;;;;15.80;9.75;;;;;;;-4.78;81.85;101857.09;4947503;28;20709;-79
2022/01/13 03:15:07;;;;;;;12.18;8.93;;;;;;;-4.77;81.76;101853.72;4946488;29;20235;-79
2022/01/13 03:17:33;;;;;;;13.70;9.07;;;;;;;-4.74;81.59;101858.94;4948842;29;20205;-79
2022/01/13 03:19:59;;;;;;;14.67;9.00;;;;;;;-4.72;81.27;101862.44;4945795;28;20204;-79
2022/01/13 03:22:24;;;;;;;11.52;8.32;;;;;;;-4.69;81.43;101854.84;4948320;28;20201;-79
2022/01/13 03:24:50;;;;;;;10.00;7.83;;;;;;;-4.66;81.59;101851.50;4946493;28;20257;-78
2022/01/13 03:27:20;;;;;;;15.80;9.90;;;;;;;-4.67;81.37;101850.66;4948161;28;20229;-79
2022/01/13 03:29:47;;;;;;;12.50;8.60;;;;;;;-4.67;81.36;101837.81;4949155;29;20214;-79
2022/01/13 03:32:12;;;;;;;11.00;8.20;;;;;;;-4.66;81.11;101831.00;4952478;29;20209;-79
2022/01/13 03:34:38;;;;;;;11.87;7.87;;;;;;;-4.66;81.44;101836.13;4952526;28;20296;-79
2022/01/13 03:37:04;;;;;;;17.43;9.77;;;;;;;-4.65;81.39;101837.00;4949064;29;20212;-79
2022/01/13 03:39:29;;;;;;;10.37;8.37;;;;;;;-4.67;81.51;101840.41;4948513;28;20463;-79
2022/01/13 03:41:55;;;;;;;12.20;8.60;;;;;;;-4.65;81.27;101848.13;4948124;28;20215;-79
2022/01/13 03:44:29;;;;;;;14.20;9.80;;;;;;;-4.69;80.90;101847.16;4947712;28;20217;-79
2022/01/13 03:47:01;;;;;;;13.75;9.48;;;;;;;-4.80;80.89;101847.59;4947018;28;20233;-79
2022/01/13 03:49:27;;;;;;;9.82;8.77;;;;;;;-4.89;81.15;101848.13;4947817;29;20201;-79
2022/01/13 03:51:55;;;;;;;15.90;10.60;;;;;;;-4.96;81.52;101843.63;4947295;29;20201;-79
2022/01/13 03:54:33;;;;;;;10.35;8.85;;;;;;;-4.97;81.46;101842.75;4947689;29;20994;-79
2022/01/13 03:57:21;;;;;;;15.35;9.43;;;;;;;-4.97;81.27;101847.00;4950251;28;20221;-79
2022/01/13 04:00:17;;;;;;;14.25;8.63;;;;;;;-4.96;81.52;101830.81;4957374;29;20241;-79
2022/01/13 04:02:43;;;;;;;18.63;13.80;;;;;;;-4.83;81.42;101835.56;4951283;29;20596;-79
2022/01/13 04:05:09;;;;;;;15.00;10.30;;;;;;;-4.83;81.38;101826.97;4950721;29;20280;-79
2022/01/13 04:07:34;;;;;;;16.15;9.98;;;;;;;-4.82;81.80;101839.00;4934717;29;20339;-79
2022/01/13 04:09:59;;;;;;;14.00;9.47;;;;;;;-4.86;81.54;101832.00;4948385;29;20241;-79
2022/01/13 04:12:27;;;;;;;19.33;12.23;;;;;;;-4.90;81.15;101836.16;4947911;29;20265;-81
2022/01/13 04:14:56;;;;;;;13.55;10.88;;;;;;;-5.01;81.23;101825.53;4947310;29;20229;-79
2022/01/13 04:17:24;;;;;;;11.43;10.23;;;;;;;-5.12;81.14;101835.38;4952883;29;20202;-79
2022/01/13 04:19:50;;;;;;;17.15;9.10;;;;;;;-5.20;81.47;101828.25;4958214;29;20220;-79
2022/01/13 04:22:17;;;;;;;15.48;9.00;;;;;;;-5.25;81.36;101822.09;4957917;28;20318;-79
2022/01/13 04:24:46;;;;;;;19.02;10.10;;;;;;;-5.26;81.34;101808.41;4958474;29;20259;-79
2022/01/13 04:27:21;;;;;;;18.95;10.63;;;;;;;-5.26;81.71;101816.09;4945771;29;20684;-79
2022/01/13 04:29:49;;;;;;;12.27;9.23;;;;;;;-5.27;81.34;101826.28;4947894;29;20594;-79
2022/01/13 04:32:15;;;;;;;11.98;9.30;;;;;;;-5.26;81.52;101817.78;4929485;29;20363;-79
2022/01/13 04:34:41;;;;;;;11.25;8.40;;;;;;;-5.24;81.52;101809.34;4944720;29;20229;-79
2022/01/13 04:37:06;;;;;;;11.57;8.17;;;;;;;-5.21;81.27;101809.44;4945386;29;20610;-79
2022/01/13 04:39:32;;;;;;;11.37;8.80;;;;;;;-5.19;81.34;101812.91;4945674;29;20205;-79
2022/01/13 04:41:58;;;;;;;11.23;8.03;;;;;;;-5.19;81.20;101812.91;4943826;29;20651;-79
2022/01/13 04:44:25;;;;;;;16.02;10.82;;;;;;;-5.18;81.62;101814.69;4929671;29;20993;-79
2022/01/13 04:46:53;;;;;;;18.52;11.00;;;;;;;-5.20;81.12;101815.44;4945133;29;20816;-80
2022/01/13 04:49:19;;;;;;;16.13;11.55;;;;;;;-5.21;81.41;101812.00;4943297;29;20214;-79
2022/01/13 04:51:46;;;;;;;14.48;10.30;;;;;;;-5.21;81.65;101814.56;4944286;29;20227;-79
2022/01/13 04:54:12;;;;;;;16.70;10.45;;;;;;;-5.19;81.36;101810.34;4929757;29;20283;-79
2022/01/13 04:59:07;;;;;;;15.80;9.80;;;;;;;-5.12;81.41;101820.00;4947420;29;20774;-79
2022/01/13 05:01:32;;;;;;;15.70;11.77;;;;;;;-5.05;81.88;101821.13;4930731;29;21009;-79
2022/01/13 05:03:58;;;;;;;21.77;10.77;;;;;;;-5.03;81.25;101824.59;4947615;29;20213;-79
2022/01/13 05:06:24;;;;;;;17.07;9.40;;;;;;;-4.99;81.74;101825.59;4945060;29;20266;-79
2022/01/13 05:08:50;;;;;;;11.03;8.53;;;;;;;-4.98;81.08;101820.50;4946107;29;20209;-79
2022/01/13 05:11:17;;;;;;;14.93;10.23;;;;;;;-4.98;81.48;101823.06;4946400;29;20329;-79
2022/01/13 05:13:43;;;;;;;10.98;8.48;;;;;;;-4.97;81.21;101818.81;4927609;29;20703;-79
2022/01/13 05:16:16;;;;;;;13.07;8.45;;;;;;;-4.97;80.98;101826.50;4946761;29;20266;-79
2022/01/13 05:18:52;;;;;;;14.82;10.57;;;;;;;-5.02;81.37;101826.34;4947107;29;20421;-79
2022/01/13 05:21:27;;;;;;;10.10;8.02;;;;;;;-5.07;81.22;101837.25;4947887;29;20264;-79
2022/01/13 05:23:53;;;;;;;12.43;8.77;;;;;;;-5.12;81.27;101831.97;4948702;29;20236;-79
2022/01/13 05:26:23;;;;;;;21.67;11.25;;;;;;;-5.13;81.35;101831.09;4946857;28;20229;-80
2022/01/13 05:28:49;;;;;;;15.82;10.38;;;;;;;-5.14;81.24;101837.00;4926674;29;20441;-81
2022/01/13 05:31:15;;;;;;;16.13;10.35;;;;;;;-5.15;81.10;101845.53;4942737;29;20499;-80
2022/01/13 05:33:40;;;;;;;14.00;9.33;;;;;;;-5.17;80.94;101846.28;4943459;29;20214;-80
2022/01/13 05:36:06;;;;;;;13.87;10.97;;;;;;;-5.21;81.54;101849.53;4941156;29;20757;-80
2022/01/13 05:38:31;;;;;;;10.73;8.90;;;;;;;-5.25;81.00;101848.56;4943775;29;20305;-80
2022/01/13 05:40:58;;;;;;;11.17;9.23;;;;;;;-5.23;81.35;101846.06;4943857;29;20240;-79
2022/01/13 05:43:24;;;;;;;12.00;9.38;;;;;;;-5.22;81.25;101845.25;4912434;29;20221;-80
2022/01/13 05:45:50;;;;;;;13.93;9.50;;;;;;;-5.21;81.47;101840.19;4941071;29;20233;-80
2022/01/13 05:48:16;;;;;;;13.52;9.02;;;;;;;-5.22;80.87;101832.44;4941876;29;20233;-80
2022/01/13 05:50:41;;;;;;;11.93;9.33;;;;;;;-5.27;81.42;101842.50;4940573;29;20265;-79
2022/01/13 05:53:07;;;;;;;12.20;8.80;;;;;;;-5.31;81.24;101852.59;4943848;29;20212;-79
2022/01/13 05:55:36;;;;;;;13.43;8.93;;;;;;;-5.34;81.02;101859.34;4932774;28;20259;-79
2022/01/13 05:58:02;;;;;;;10.13;8.20;;;;;;;-5.34;80.93;101859.34;4944171;29;20249;-79
2022/01/13 06:00:28;;;;;;;14.52;9.43;;;;;;;-5.36;81.29;101849.88;4943529;29;20219;-80
2022/01/13 06:02:53;;;;;;;16.57;10.30;;;;;;;-5.35;81.04;101849.94;4943889;29;20276;-79
2022/01/13 06:05:20;;;;;;;25.87;10.07;;;;;;;-5.34;81.36;101843.13;4925454;29;20304;-79
2022/01/13 06:07:46;;;;;;;15.68;10.50;;;;;;;-5.31;80.81;101855.16;4940842;29;20263;-79
2022/01/13 06:10:18;;;;;;;16.38;11.43;;;;;;;-5.29;81.20;101851.84;4926702;29;20639;-79
2022/01/13 06:12:44;;;;;;;15.35;10.30;;;;;;;-5.29;80.86;101853.50;4939826;29;20206;-79
2022/01/13 06:15:11;;;;;;;16.30;9.27;;;;;;;-5.31;80.68;101848.34;4941940;29;20240;-79
2022/01/13 06:17:38;;;;;;;14.50;11.18;;;;;;;-5.29;81.37;101856.97;4941875;29;20251;-79
2022/01/13 06:20:06;;;;;;;20.67;13.55;;;;;;;-5.27;80.83;101855.31;4947181;28;20249;-79
2022/01/13 06:22:32;;;;;;;15.75;11.93;;;;;;;-5.23;80.91;101856.31;4962136;28;20201;-79
2022/01/13 06:24:57;;;;;;;27.83;14.60;;;;;;;-5.22;81.13;101861.47;4963338;28;20251;-80
2022/01/13 06:27:23;;;;;;;20.60;15.97;;;;;;;-5.20;81.13;101861.56;4960977;28;20248;-80
2022/01/13 06:29:53;;;;;;;21.70;12.67;;;;;;;-5.24;80.75;101865.69;4960690;28;20208;-79
2022/01/13 06:32:20;;;;;;;17.88;14.52;;;;;;;-5.26;80.88;101862.19;4958937;28;21213;-79
2022/01/13 06:34:45;;;;;;;20.00;12.00;;;;;;;-5.30;81.09;101874.84;4960801;28;20256;-80
2022/01/13 06:37:10;;;;;;;16.97;9.80;;;;;;;-5.37;81.40;101853.25;4961523;28;20207;-79
2022/01/13 06:39:36;;;;;;;11.97;8.93;;;;;;;-5.43;81.19;101853.88;4962992;28;20236;-80
2022/01/13 06:42:02;;;;;;;11.80;9.03;;;;;;;-5.49;81.27;101861.31;4961865;28;20200;-79
2022/01/13 06:44:27;;;;;;;14.40;9.03;;;;;;;-5.56;81.33;101854.25;4945131;28;20246;-79
2022/01/13 06:46:53;;;;;;;13.50;8.43;;;;;;;-5.61;81.27;101859.19;4967066;28;20229;-79
2022/01/13 06:49:18;;;;;;;9.10;7.67;;;;;;;-5.62;81.43;101864.22;4967630;28;20245;-79
2022/01/13 06:51:44;;;;;;;14.17;9.63;;;;;;;-5.61;81.35;101869.44;4966689;28;20494;-79
2022/01/13 06:54:09;;;;;;;14.37;9.13;;;;;;;-5.59;81.65;101877.16;4968021;28;20337;-79
2022/01/13 06:56:34;;;;;;;17.67;9.50;;;;;;;-5.60;81.36;101881.41;4970214;28;20228;-79
2022/01/13 06:59:04;;;;;;;12.87;8.73;;;;;;;-5.57;80.80;101875.53;4965826;28;20210;-80
2022/01/13 07:01:30;;;;;;;11.25;8.35;;;;;;;-5.54;81.21;101870.50;4966741;28;20211;-79
2022/01/13 07:03:56;;;;;;;14.53;9.20;;;;;;;-5.49;80.94;101870.69;4971671;28;20208;-80
2022/01/13 07:06:21;;;;;;;18.20;10.83;;;;;;;-5.48;80.68;101873.34;5003346;23;20315;-75
2022/01/13 07:08:46;;;;;;;9.67;8.63;;;;;;;-5.49;80.90;101874.13;5001604;28;20572;-75
2022/01/13 07:11:12;;;;;;;13.20;9.20;;;;;;;-5.47;80.91;101879.31;5014911;28;20214;-75
2022/01/13 07:13:37;;;;;;;11.97;10.20;;;;;;;-5.46;80.76;101874.25;5011989;28;20215;-75
2022/01/13 07:16:03;;;;;;;10.80;9.73;;;;;;;-5.42;80.88;101881.25;5017652;28;20226;-75
2022/01/13 07:18:30;;;;;;;19.60;10.57;;;;;;;-5.37;81.13;101878.88;5014985;28;20639;-75
2022/01/13 07:20:56;;;;;;;19.02;10.90;;;;;;;-5.33;80.99;101893.50;5015147;28;20457;-75
2022/01/13 07:23:22;;;;;;;19.05;11.18;;;;;;;-5.29;80.71;101887.72;5016117;28;20273;-75
2022/01/13 07:25:48;;;;;;;14.37;10.63;;;;;;;-5.27;80.98;101890.31;5016919;28;20223;-75
2022/01/13 07:28:13;;;;;;;16.93;11.07;;;;;;;-5.25;80.73;101881.88;5015648;28;20907;-75
2022/01/13 07:30:39;;;;;;;14.10;10.80;;;;;;;-5.23;80.87;101885.38;5013256;28;20288;-75
2022/01/13 07:33:04;;;;;;;15.67;11.07;;;;;;;-5.20;80.43;101877.78;5015919;28;20202;-75
2022/01/13 07:35:30;;;;;;;17.83;10.50;;;;;;;-5.19;80.62;101883.78;5016554;28;20345;-75
2022/01/13 07:37:56;;;;;;;15.20;12.00;;;;;;;-5.17;80.74;101888.16;5013709;28;20209;-75
2022/01/13 07:40:21;;;;;;;11.67;10.00;;;;;;;-5.14;80.58;101888.25;5017709;28;20529;-75
2022/01/13 07:42:47;;;;;;;21.20;11.40;;;;;;;-5.10;80.38;101884.13;5009655;28;20745;-76
2022/01/13 07:45:16;;;;;;;15.63;11.82;;;;;;;-5.06;80.27;101885.13;4996327;28;20695;-75
2022/01/13 07:47:42;;;;;;;19.13;11.85;;;;;;;-5.04;80.78;101880.94;4995185;28;20238;-75
2022/01/13 07:50:10;;;;;;;15.77;11.82;;;;;;;-5.04;80.32;101880.94;4997856;28;20225;-76
2022/01/13 07:52:36;;;;;;;20.80;11.27;;;;;;;-5.04;80.14;101894.59;5012949;28;20206;-75
2022/01/13 07:55:03;;;;;;;19.00;13.40;;;;;;;-5.02;80.29;101884.41;5016727;28;20234;-75
2022/01/13 07:57:28;;;;;;;19.63;13.15;;;;;;;-4.99;80.55;101893.09;5011415;28;20668;-75
2022/01/13 07:59:54;;;;;;;14.83;11.00;;;;;;;-4.98;80.46;101896.50;5015296;28;20302;-75
2022/01/13 08:02:19;;;;;;;21.57;11.50;;;;;;;-4.95;80.76;101897.50;5013368;28;20210;-75
2022/01/13 08:04:45;;;;;;;18.30;10.70;;;;;;;-4.92;80.62;101889.03;5013229;28;20199;-76
2022/01/13 08:07:10;;;;;;;14.83;12.43;;;;;;;-4.87;80.70;101892.66;5013093;28;20230;-75
2022/01/13 08:09:36;;;;;;;16.70;11.67;;;;;;;-4.82;80.41;101895.38;5013590;28;20211;-75
2022/01/13 08:12:02;;;;;;;16.67;12.10;;;;;;;-4.79;79.90;101890.34;4992260;28;20210;-75
2022/01/13 08:14:27;;;;;;;16.97;11.33;;;;;;;-4.73;80.69;101900.81;5011528;28;20301;-75
2022/01/13 08:16:57;;;;;;;18.20;9.90;;;;;;;-4.68;80.15;101899.31;5015970;28;20631;-75
2022/01/13 08:22:06;;;;;;;17.45;12.75;;;;;;;-4.57;80.35;101890.28;5012370;28;20214;-75
2022/01/13 08:24:32;;;;;;;13.90;10.87;;;;;;;-4.49;80.17;101890.56;5011908;28;20211;-75
2022/01/13 08:26:57;;;;;;;16.97;12.93;;;;;;;-4.42;79.81;101897.66;5014127;28;20425;-75
2022/01/13 08:29:22;;;;;;;16.27;11.47;;;;;;;-4.33;79.72;101881.69;5013543;28;20285;-75
2022/01/13 08:31:48;;;;;;;17.67;11.90;;;;;;;-4.25;79.52;101890.53;4997573;28;20261;-75
2022/01/13 08:34:15;;;;;;;16.10;11.60;;;;;;;-4.18;79.56;101886.47;5012675;28;20724;-76
2022/01/13 08:36:41;;;;;;;15.75;11.73;;;;;;;-4.10;79.33;101885.03;5012300;28;20226;-75
2022/01/13 08:39:07;;;;;;;18.73;11.30;;;;;;;-4.02;79.22;101881.88;5013644;28;20264;-75
2022/01/13 08:41:33;;;;;;;19.73;11.60;;;;;;;-3.92;79.18;101882.16;5012705;28;20203;-75
2022/01/13 08:43:58;;;;;;;16.20;12.20;;;;;;;-3.85;79.11;101882.41;4994052;28;20872;-75
2022/01/13 08:46:25;;;;;;;16.93;12.10;;;;;;;-3.80;78.86;101880.88;5007307;28;20226;-76
2022/01/13 08:48:50;;;;;;;21.17;11.77;;;;;;;-3.75;79.30;101868.19;5010261;28;20575;-75
2022/01/13 08:51:18;;;;;;;18.43;13.00;;;;;;;-3.69;79.32;101877.78;5011995;28;20373;-75
2022/01/13 08:53:45;;;;;;;13.88;11.13;;;;;;;-3.53;79.45;101885.13;5011410;28;20297;-75
2022/01/13 08:56:11;;;;;;;18.95;11.63;;;;;;;-2.63;79.21;101885.97;5010196;28;20905;-76
2022/01/13 08:58:37;;;;;;;19.23;10.75;;;;;;;-1.23;76.32;101874.72;4997097;28;20218;-76
2022/01/13 09:01:02;;;;;;;15.43;11.52;;;;;;;0.40;72.38;101881.94;5013047;28;21776;-76
2022/01/13 09:03:28;;;;;;;11.40;9.13;;;;;;;1.79;69.16;101875.81;5007262;28;20377;-76
2022/01/13 09:05:53;;;;;;;11.70;9.50;;;;;;;2.86;66.28;101867.03;5010411;28;20307;-76
2022/01/13 09:08:19;;;;;;;20.20;10.40;;;;;;;3.73;64.19;101863.78;5011014;28;20225;-76
2022/01/13 09:10:44;;;;;;;12.43;10.10;;;;;;;4.66;61.58;101860.19;5008824;28;20643;-76
2022/01/13 09:13:17;;;;;;;15.47;9.37;;;;;;;5.57;59.56;101858.88;5011401;28;20214;-76
2022/01/13 09:15:51;;;;;;;12.30;9.85;;;;;;;6.37;57.80;101853.88;5012694;28;20548;-76
2022/01/13 09:18:29;;;;;;;11.85;9.07;;;;;;;7.07;56.05;101858.28;5004573;28;20190;-76
2022/01/13 09:20:55;;;;;;;12.32;11.00;;;;;;;7.67;54.60;101851.31;5011218;28;20220;-75
2022/01/13 09:23:21;;;;;;;14.43;10.80;;;;;;;8.02;53.22;101848.16;5005230;28;20199;-76
2022/01/13 09:25:47;;;;;;;13.40;12.00;;;;;;;7.94;52.46;101844.81;4999111;28;20529;-76
2022/01/13 09:28:13;;;;;;;17.20;13.97;;;;;;;7.62;53.42;101859.25;5011383;28;20229;-76
2022/01/13 09:30:39;;;;;;;16.48;14.82;;;;;;;7.18;53.39;101871.19;5007417;28;20261;-76
2022/01/13 09:33:05;;;;;;;18.97;17.03;;;;;;;6.53;54.74;101872.84;5007106;28;20210;-75
2022/01/13 09:35:32;;;;;;;20.67;15.82;;;;;;;5.82;55.25;101878.69;4967686;28;20623;-76
2022/01/13 09:37:57;;;;;;;21.25;16.95;;;;;;;4.82;57.56;101866.22;4965550;28;20778;-75
2022/01/13 09:40:23;;;;;;;23.67;17.10;;;;;;;4.19;59.38;101879.38;4967070;28;20207;-76
2022/01/13 09:42:49;;;;;;;22.10;17.50;;;;;;;3.58;60.49;101870.69;4997921;28;20330;-76
2022/01/13 09:45:16;;;;;;;18.98;16.98;;;;;;;2.93;62.24;101875.69;5009359;28;20887;-76
2022/01/13 09:47:43;;;;;;;20.88;15.57;;;;;;;2.40;63.56;101876.25;5007787;28;20233;-76
2022/01/13 09:50:12;;;;;;;18.58;15.60;;;;;;;2.01;64.86;101877.72;5011428;28;20325;-76
2022/01/13 09:52:38;;;;;;;25.92;16.60;;;;;;;1.74;65.22;101883.53;4996762;28;20214;-76
2022/01/13 09:55:06;;;;;;;20.25;15.07;;;;;;;1.53;66.04;101873.84;5005580;28;20222;-76
2022/01/13 09:57:32;;;;;;;18.55;13.95;;;;;;;1.69;65.93;101874.84;4989608;28;20206;-76
2022/01/13 09:59:58;;;;;;;20.80;15.80;;;;;;;1.99;64.96;101867.31;5008018;28;20203;-76
2022/01/13 10:02:24;;;;;;;28.13;21.05;;;;;;;3.13;61.98;101854.97;5013123;28;20482;-75
2022/01/13 10:04:55;;;;;;;24.83;18.10;;;;;;;3.74;59.88;101852.50;4992395;28;20213;-76
2022/01/13 10:07:31;;;;;;;18.85;16.85;;;;;;;4.36;58.54;101844.66;5009339;28;20222;-76
2022/01/13 10:09:59;;;;;;;21.02;16.23;;;;;;;4.88;57.02;101839.28;5013299;28;20276;-76
2022/01/13 10:12:36;;;;;;;18.70;15.25;;;;;;;5.25;56.26;101839.09;5004724;28;20215;-75
2022/01/13 10:17:50;;;;;;;23.27;19.13;;;;;;;5.33;55.71;101850.34;5012876;28;20221;-76
2022/01/13 10:20:20;;;;;;;23.58;17.10;;;;;;;5.14;56.57;101851.31;5014220;28;20203;-76
2022/01/13 10:22:47;;;;;;;25.25;17.05;;;;;;;4.86;57.21;101846.22;5012586;28;20198;-75
2022/01/13 10:25:34;;;;;;;26.60;19.20;;;;;;;4.42;58.62;101853.31;4995328;28;20317;-75
2022/01/13 10:28:18;;;;;;;24.40;18.35;;;;;;;3.54;60.33;101846.44;4991419;28;20228;-75
2022/01/13 10:30:46;;;;;;;22.60;17.58;;;;;;;2.79;62.87;101847.09;5010324;28;20293;-75
2022/01/13 10:33:18;;;;;;;28.05;19.33;;;;;;;2.24;64.67;101838.97;5008502;28;20229;-75
2022/01/13 10:35:44;;;;;;;23.52;18.30;;;;;;;1.87;65.75;101837.88;5006708;28;20258;-75
2022/01/13 10:38:09;;;;;;;25.73;18.58;;;;;;;1.59;67.04;101839.34;5012481;28;20878;-76
2022/01/13 10:40:40;;;;;;;27.13;19.07;;;;;;;1.27;68.01;101842.47;5015509;28;20226;-76
2022/01/13 10:43:08;;;;;;;25.08;18.23;;;;;;;0.96;69.13;101833.53;5008730;28;20238;-76
2022/01/13 10:45:39;;;;;;;26.15;20.08;;;;;;;0.82;69.85;101831.66;5013301;28;20223;-75
2022/01/13 10:48:09;;;;;;;25.02;19.05;;;;;;;0.77;70.10;101827.25;5008830;28;20227;-75
2022/01/13 10:50:34;;;;;;;26.55;19.17;;;;;;;0.72;70.43;101829.78;5009516;28;20206;-75
2022/01/13 10:53:03;;;;;;;26.67;19.53;;;;;;;0.64;70.90;101831.41;5013253;28;20207;-75
2022/01/13 10:55:29;;;;;;;22.20;17.45;;;;;;;0.61;71.24;101826.19;5007108;28;20218;-76
2022/01/13 10:57:55;;;;;;;29.80;21.75;;;;;;;0.55;71.58;101821.81;5005894;28;20234;-75
2022/01/13 11:00:23;;;;;;;29.47;18.30;;;;;;;0.49;71.84;101820.84;5013887;28;20210;-76
2022/01/13 11:03:03;;;;;;;29.45;20.45;;;;;;;0.40;72.44;101825.06;5013720;28;20634;-75
2022/01/13 11:05:31;;;;;;;27.15;19.63;;;;;;;0.34;72.58;101816.38;5001899;28;20325;-75
2022/01/13 11:08:01;;;;;;;32.05;19.60;;;;;;;0.28;73.18;101827.50;5004942;28;20629;-75
2022/01/13 11:10:27;;;;;;;32.55;21.77;;;;;;;0.23;73.61;101823.97;5010428;28;20210;-75
2022/01/13 11:12:58;;;;;;;26.23;18.20;;;;;;;0.21;73.82;101820.47;5006765;28;20206;-75
2022/01/13 11:15:25;;;;;;;29.38;20.98;;;;;;;0.24;73.94;101822.25;5002474;28;20218;-75
2022/01/13 11:17:52;;;;;;;29.67;19.75;;;;;;;0.26;74.34;101829.19;5009944;28;20213;-75
2022/01/13 11:20:19;;;;;;;29.75;21.20;;;;;;;0.24;74.12;101830.00;4993212;28;20702;-75
2022/01/13 11:22:47;;;;;;;26.52;20.65;;;;;;;0.19;74.73;101823.06;4991117;28;20222;-75
2022/01/13 11:25:18;;;;;;;32.92;21.33;;;;;;;0.14;75.07;101824.72;5004487;28;20281;-75
2022/01/13 11:27:44;;;;;;;30.20;18.95;;;;;;;0.10;75.11;101817.75;5002593;28;20218;-75
2022/01/13 11:30:17;;;;;;;30.80;21.83;;;;;;;0.04;75.24;101817.66;5013025;28;20301;-74
2022/01/13 11:32:44;;;;;;;35.88;27.55;;;;;;;0.15;75.96;101813.50;5013160;28;20480;-74
2022/01/13 11:35:25;;;;;;;36.22;23.60;;;;;;;0.10;75.81;101812.56;5010480;28;20288;-74
2022/01/13 11:37:51;;;;;;;26.67;20.42;;;;;;;0.10;75.81;101822.91;5011544;28;20202;-74
2022/01/13 11:40:28;;;;;;;31.63;20.90;;;;;;;0.12;76.15;101821.22;5005720;28;20207;-74
2022/01/13 11:43:00;;;;;;;31.25;20.48;;;;;;;0.16;76.19;101816.97;5006333;28;20460;-75